Time;durP1;ratioP1;P1;durP2;ratioP2;P2;SDS_P1;SDS_P2;PMS_P1;PMS_P2;Temp;Humidity;BMP_temperature;BMP_pressure;BME280_temperature;BME280_humidity;BME280_pressure;Samples;Min_cycle;Max_cycle;Signal;HPM_P1;HPM_P2
2023/01/27 05:02:03;;;;;;;0.40;0.40;;;4.30;99.90;;;;;;5177921;23;20743;-66
2023/01/27 05:04:30;;;;;;;0.20;0.20;;;4.30;99.90;;;;;;4918891;29;20678;-67
2023/01/27 05:06:56;;;;;;;1.00;1.00;;;4.20;99.90;;;;;;4913124;29;20302;-66
2023/01/27 05:09:23;;;;;;;0.43;0.43;;;4.20;99.90;;;;;;4918512;29;20210;-67
2023/01/27 05:11:50;;;;;;;0.20;0.20;;;4.20;99.90;;;;;;4915627;29;20219;-66
2023/01/27 05:14:17;;;;;;;1.50;1.40;;;4.20;99.90;;;;;;4912848;29;20218;-68
2023/01/27 05:16:43;;;;;;;1.08;1.08;;;4.10;99.90;;;;;;4942148;23;20251;-68
2023/01/27 05:19:11;;;;;;;1.35;1.17;;;4.20;99.90;;;;;;4932511;29;20212;-67
2023/01/27 05:21:38;;;;;;;1.58;1.48;;;4.20;99.90;;;;;;4932795;29;20230;-69
2023/01/27 05:24:05;;;;;;;0.82;0.20;;;4.20;99.90;;;;;;4930292;29;20265;-66
2023/01/27 05:26:32;;;;;;;1.02;1.02;;;4.20;99.90;;;;;;4933181;29;20230;-67
2023/01/27 05:28:59;;;;;;;0.55;0.50;;;4.20;99.90;;;;;;4934302;29;20214;-67
2023/01/27 05:31:27;;;;;;;0.40;0.40;;;4.10;99.90;;;;;;4934175;29;20212;-67
2023/01/27 05:33:55;;;;;;;1.58;1.58;;;4.10;99.90;;;;;;4921378;29;20236;-69
2023/01/27 05:36:25;;;;;;;3.08;0.90;;;4.10;99.90;;;;;;4931896;29;20600;-67
2023/01/27 05:38:52;;;;;;;2.58;0.70;;;4.10;99.90;;;;;;4933179;29;20210;-67
2023/01/27 05:41:20;;;;;;;2.60;2.05;;;4.10;99.90;;;;;;4934287;29;20214;-66
2023/01/27 05:43:51;;;;;;;1.00;1.00;;;4.10;99.90;;;;;;4931021;29;20655;-68
2023/01/27 05:46:19;;;;;;;2.50;2.40;;;4.10;99.90;;;;;;4932740;29;20237;-67
2023/01/27 05:48:48;;;;;;;0.50;0.50;;;4.10;99.90;;;;;;4933241;29;20248;-68
2023/01/27 05:51:16;;;;;;;0.88;0.40;;;4.10;99.90;;;;;;4933483;29;20667;-67
2023/01/27 05:53:44;;;;;;;0.43;0.40;;;4.10;99.90;;;;;;4932411;29;20219;-67
2023/01/27 05:56:13;;;;;;;1.50;1.50;;;4.10;99.90;;;;;;4929709;29;20602;-67
2023/01/27 05:58:39;;;;;;;0.82;0.82;;;4.10;99.90;;;;;;4933655;29;20208;-66
2023/01/27 06:01:08;;;;;;;5.65;1.25;;;4.10;99.90;;;;;;4930826;29;20686;-69
2023/01/27 06:03:35;;;;;;;0.82;0.82;;;4.10;99.90;;;;;;4932487;29;20321;-68
2023/01/27 06:06:02;;;;;;;0.80;0.80;;;4.00;99.90;;;;;;4932832;29;20222;-67
2023/01/27 06:08:29;;;;;;;8.02;1.25;;;4.00;99.90;;;;;;4931548;29;20293;-67
2023/01/27 06:10:59;;;;;;;0.95;0.88;;;4.00;99.90;;;;;;4932213;29;20205;-66
2023/01/27 06:13:26;;;;;;;1.70;1.60;;;4.10;99.90;;;;;;4928979;29;20573;-66
2023/01/27 06:15:53;;;;;;;1.25;1.17;;;4.10;99.90;;;;;;4933127;29;20268;-68
2023/01/27 06:18:20;;;;;;;0.65;0.65;;;4.00;99.90;;;;;;4932937;29;20640;-66
2023/01/27 06:20:47;;;;;;;2.00;1.90;;;4.00;99.90;;;;;;4932571;29;20206;-68
2023/01/27 06:23:16;;;;;;;0.63;0.57;;;4.00;99.90;;;;;;4930088;29;20586;-68
2023/01/27 06:25:44;;;;;;;0.40;0.40;;;4.00;99.90;;;;;;4931767;29;21968;-66
2023/01/27 06:28:13;;;;;;;1.13;1.13;;;4.00;99.90;;;;;;4932332;29;20227;-68
2023/01/27 06:30:41;;;;;;;1.38;0.45;;;4.00;99.90;;;;;;4932448;29;20221;-67
2023/01/27 06:33:09;;;;;;;1.52;0.93;;;4.00;99.90;;;;;;4926682;29;20207;-67
2023/01/27 06:35:37;;;;;;;1.10;1.10;;;4.10;99.90;;;;;;4925329;29;20741;-67
2023/01/27 06:38:08;;;;;;;1.30;1.30;;;4.00;99.90;;;;;;4931911;29;20202;-66
2023/01/27 06:40:35;;;;;;;1.25;1.25;;;4.00;99.90;;;;;;4932510;29;20222;-66
2023/01/27 06:43:02;;;;;;;0.98;0.98;;;4.00;99.90;;;;;;4931646;29;20230;-68
2023/01/27 06:45:30;;;;;;;0.20;0.20;;;4.10;99.90;;;;;;4932861;29;20604;-67
2023/01/27 06:47:59;;;;;;;1.30;0.57;;;4.00;99.90;;;;;;4931989;29;20217;-67
2023/01/27 06:50:28;;;;;;;1.05;0.95;;;4.00;99.90;;;;;;4933145;29;20210;-67
2023/01/27 06:53:00;;;;;;;4.85;1.42;;;4.00;99.90;;;;;;4929733;29;20206;-67
2023/01/27 06:55:27;;;;;;;1.15;1.15;;;4.00;99.90;;;;;;4931994;29;20237;-67
2023/01/27 06:57:54;;;;;;;0.70;0.70;;;4.10;99.90;;;;;;4933247;29;20213;-67
2023/01/27 07:00:21;;;;;;;0.60;0.60;;;4.00;99.90;;;;;;4931540;29;20596;-67
2023/01/27 07:02:50;;;;;;;0.63;0.63;;;4.00;99.90;;;;;;4930036;29;20227;-67
2023/01/27 07:05:16;;;;;;;0.60;0.60;;;4.00;99.90;;;;;;4932753;29;20233;-67
2023/01/27 07:07:43;;;;;;;0.82;0.82;;;4.00;99.90;;;;;;4933551;29;20213;-67
2023/01/27 07:10:11;;;;;;;1.25;1.10;;;4.00;99.90;;;;;;4933030;29;20210;-68
2023/01/27 07:12:38;;;;;;;0.32;0.32;;;4.10;99.90;;;;;;4939301;29;20207;-68
2023/01/27 07:15:06;;;;;;;0.57;0.40;;;4.10;99.90;;;;;;4941562;29;20245;-68
2023/01/27 07:17:33;;;;;;;1.40;1.40;;;4.10;99.90;;;;;;4936956;29;20229;-68
2023/01/27 07:20:02;;;;;;;0.50;0.50;;;4.10;99.90;;;;;;4941236;29;20217;-68
2023/01/27 07:22:28;;;;;;;1.33;1.33;;;4.10;99.90;;;;;;4941308;29;20712;-68
2023/01/27 07:24:55;;;;;;;0.20;0.20;;;4.00;99.90;;;;;;4934989;29;20214;-67
2023/01/27 07:27:22;;;;;;;1.20;1.20;;;4.10;99.90;;;;;;4932975;29;20210;-67
2023/01/27 07:29:49;;;;;;;1.02;0.90;;;4.00;99.90;;;;;;4941506;29;20218;-69
2023/01/27 07:32:16;;;;;;;0.30;0.30;;;4.00;99.90;;;;;;4938418;29;20201;-68
2023/01/27 07:34:42;;;;;;;0.30;0.30;;;4.00;99.90;;;;;;4941951;29;20211;-68
2023/01/27 07:37:10;;;;;;;0.40;0.40;;;4.00;99.90;;;;;;4942867;28;20241;-68
2023/01/27 07:39:37;;;;;;;1.15;0.60;;;4.00;99.90;;;;;;4942099;29;20221;-68
2023/01/27 07:42:04;;;;;;;0.82;0.82;;;4.00;99.90;;;;;;4942498;29;20229;-67
2023/01/27 07:44:31;;;;;;;1.33;1.05;;;4.00;99.90;;;;;;4938551;29;20699;-70
2023/01/27 07:46:59;;;;;;;0.45;0.45;;;4.00;99.90;;;;;;4945032;29;20234;-69
2023/01/27 07:49:26;;;;;;;0.50;0.50;;;4.00;99.90;;;;;;4946993;29;20680;-69
2023/01/27 07:51:53;;;;;;;0.20;0.20;;;4.00;99.90;;;;;;4946251;29;20213;-69
2023/01/27 07:54:21;;;;;;;0.63;0.60;;;3.90;99.90;;;;;;4941127;29;20210;-69
2023/01/27 07:56:48;;;;;;;1.58;1.20;;;3.90;99.90;;;;;;4945742;29;20253;-69
2023/01/27 07:59:14;;;;;;;0.40;0.40;;;3.90;99.90;;;;;;4935722;29;20671;-68
2023/01/27 08:01:42;;;;;;;1.08;1.05;;;4.00;99.90;;;;;;4933399;29;20225;-69
2023/01/27 08:04:09;;;;;;;3.50;0.95;;;3.90;99.90;;;;;;4934596;29;20234;-68
2023/01/27 08:06:38;;;;;;;0.20;0.20;;;3.90;99.90;;;;;;4936112;29;20336;-67
2023/01/27 08:09:04;;;;;;;0.20;0.20;;;3.90;99.90;;;;;;4937349;29;20214;-67
2023/01/27 08:11:33;;;;;;;1.17;0.75;;;3.90;99.90;;;;;;4936553;29;20205;-68
2023/01/27 08:13:59;;;;;;;0.43;0.43;;;3.90;99.90;;;;;;4934667;29;20206;-68
2023/01/27 08:16:26;;;;;;;0.50;0.50;;;3.90;99.90;;;;;;4932350;29;20623;-68
2023/01/27 08:18:53;;;;;;;0.30;0.30;;;3.80;99.90;;;;;;4935614;29;20210;-69
2023/01/27 08:21:20;;;;;;;1.23;0.57;;;3.80;99.90;;;;;;4928470;29;20215;-66
2023/01/27 08:23:47;;;;;;;0.95;0.65;;;3.80;99.90;;;;;;4935000;29;20229;-67
2023/01/27 08:26:14;;;;;;;2.28;0.85;;;3.80;99.90;;;;;;4934419;29;20233;-67
2023/01/27 08:28:42;;;;;;;0.32;0.32;;;3.80;99.90;;;;;;4934147;29;20210;-66
2023/01/27 08:31:11;;;;;;;0.70;0.70;;;3.80;99.90;;;;;;4929586;29;20566;-66
2023/01/27 08:33:38;;;;;;;0.30;0.30;;;3.80;99.90;;;;;;4930907;29;20214;-67
2023/01/27 08:36:07;;;;;;;0.20;0.20;;;3.80;99.90;;;;;;4928824;29;20226;-66
2023/01/27 08:38:36;;;;;;;0.50;0.50;;;3.90;99.90;;;;;;4933381;29;20229;-67
2023/01/27 08:41:05;;;;;;;0.30;0.30;;;3.90;99.90;;;;;;4937199;29;20257;-68
2023/01/27 08:43:32;;;;;;;0.35;0.35;;;3.90;99.90;;;;;;4935714;29;20226;-68
2023/01/27 08:46:00;;;;;;;0.50;0.50;;;3.90;99.90;;;;;;4938635;29;20259;-68
2023/01/27 08:48:28;;;;;;;2.15;0.93;;;3.90;99.90;;;;;;4932642;29;20488;-68
2023/01/27 08:50:55;;;;;;;0.60;0.60;;;3.90;99.90;;;;;;4943505;29;20202;-68
2023/01/27 08:53:22;;;;;;;0.95;0.45;;;3.90;99.90;;;;;;4945348;29;20203;-67
2023/01/27 08:55:49;;;;;;;0.22;0.22;;;3.90;99.90;;;;;;4938957;29;20259;-68
2023/01/27 08:58:17;;;;;;;0.57;0.57;;;3.90;99.90;;;;;;4941655;29;20303;-68
2023/01/27 09:00:44;;;;;;;0.50;0.50;;;3.90;99.90;;;;;;4940360;29;20221;-68
2023/01/27 09:03:12;;;;;;;0.28;0.28;;;4.00;99.90;;;;;;4931621;29;20244;-67
2023/01/27 09:05:40;;;;;;;13.00;0.65;;;3.90;99.90;;;;;;4934005;29;20226;-67
2023/01/27 09:08:07;;;;;;;5.57;1.05;;;4.00;99.90;;;;;;4930694;29;20202;-67
2023/01/27 09:10:38;;;;;;;0.38;0.30;;;4.00;99.90;;;;;;4932307;29;20240;-66
2023/01/27 09:13:04;;;;;;;0.55;0.55;;;4.00;99.90;;;;;;4929945;29;20489;-68
2023/01/27 09:15:31;;;;;;;0.38;0.38;;;4.00;99.90;;;;;;4933621;29;20242;-68
2023/01/27 09:17:58;;;;;;;0.30;0.30;;;3.90;99.90;;;;;;4932673;29;20841;-68
2023/01/27 09:20:26;;;;;;;0.20;0.20;;;4.00;99.90;;;;;;4934250;29;20217;-68
2023/01/27 09:22:55;;;;;;;0.90;0.90;;;4.00;99.90;;;;;;4934147;29;20226;-68
2023/01/27 09:25:22;;;;;;;0.63;0.63;;;4.00;99.90;;;;;;4934228;29;20222;-68
2023/01/27 09:27:48;;;;;;;0.40;0.40;;;4.10;99.90;;;;;;4933263;29;20206;-68
2023/01/27 09:30:16;;;;;;;0.30;0.30;;;4.00;99.90;;;;;;4934282;29;20213;-69
2023/01/27 09:32:43;;;;;;;0.40;0.40;;;4.10;99.90;;;;;;4933689;29;20590;-68
2023/01/27 09:35:10;;;;;;;0.80;0.80;;;4.10;99.90;;;;;;4932368;29;20265;-69
2023/01/27 09:37:44;;;;;;;0.40;0.40;;;4.10;99.90;;;;;;4934718;29;20203;-68
2023/01/27 09:40:21;;;;;;;0.30;0.30;;;4.10;99.90;;;;;;4934275;29;20210;-69
2023/01/27 09:43:04;;;;;;;1.05;1.05;;;4.20;99.90;;;;;;4925935;29;20301;-68
2023/01/27 09:45:46;;;;;;;0.40;0.40;;;4.20;99.90;;;;;;4931339;29;20699;-66
2023/01/27 09:48:31;;;;;;;0.95;0.70;;;4.20;99.90;;;;;;4927052;29;20214;-66
2023/01/27 09:51:04;;;;;;;0.50;0.50;;;4.20;99.90;;;;;;4927292;29;20203;-67
2023/01/27 09:54:04;;;;;;;5.57;0.73;;;4.20;99.90;;;;;;4930727;29;20217;-66
2023/01/27 09:56:49;;;;;;;0.77;0.77;;;4.20;99.90;;;;;;4927801;29;20230;-67
2023/01/27 09:59:27;;;;;;;0.57;0.52;;;4.20;99.90;;;;;;4931388;29;20219;-68
2023/01/27 10:02:07;;;;;;;0.60;0.60;;;4.20;99.90;;;;;;4930879;29;20203;-68
2023/01/27 10:04:56;;;;;;;0.40;0.40;;;4.20;99.90;;;;;;4915059;29;20219;-68
2023/01/27 10:07:35;;;;;;;0.80;0.80;;;4.20;99.90;;;;;;4930604;29;20210;-68
2023/01/27 10:10:15;;;;;;;2.47;2.28;;;4.20;99.90;;;;;;4924782;29;20209;-68
2023/01/27 10:12:59;;;;;;;1.05;1.05;;;4.20;99.90;;;;;;4929982;29;20206;-68
2023/01/27 10:15:40;;;;;;;0.32;0.32;;;4.10;99.90;;;;;;4933230;29;20245;-68
2023/01/27 10:18:19;;;;;;;0.60;0.60;;;4.20;99.90;;;;;;4928445;29;20212;-68
2023/01/27 10:20:54;;;;;;;0.40;0.40;;;4.10;99.90;;;;;;4934478;29;20202;-67
2023/01/27 10:23:33;;;;;;;1.00;0.98;;;4.10;99.90;;;;;;4933444;29;20254;-67
2023/01/27 10:26:08;;;;;;;0.40;0.40;;;4.20;99.90;;;;;;4932057;29;20238;-67
2023/01/27 10:28:37;;;;;;;0.30;0.30;;;4.10;99.90;;;;;;4934096;29;20624;-67
2023/01/27 10:31:12;;;;;;;0.30;0.30;;;4.10;99.90;;;;;;4920669;29;20757;-68
2023/01/27 10:33:48;;;;;;;0.82;0.82;;;4.10;99.90;;;;;;4923027;29;20210;-68
2023/01/27 10:36:24;;;;;;;0.30;0.30;;;4.10;99.90;;;;;;4928906;29;20267;-68
2023/01/27 10:39:02;;;;;;;2.83;2.45;;;4.10;99.90;;;;;;4926937;29;20202;-67
2023/01/27 10:41:35;;;;;;;0.40;0.40;;;4.10;99.90;;;;;;4925742;29;21022;-68
2023/01/27 10:44:16;;;;;;;2.05;1.95;;;4.10;99.90;;;;;;4931729;29;20261;-68
2023/01/27 10:46:53;;;;;;;12.27;1.55;;;4.10;99.90;;;;;;4932789;29;20233;-68
2023/01/27 10:49:25;;;;;;;0.65;0.65;;;4.00;99.90;;;;;;4929043;29;20210;-68
2023/01/27 10:51:57;;;;;;;0.85;0.85;;;4.00;99.90;;;;;;4926567;29;20209;-67
2023/01/27 10:54:31;;;;;;;0.20;0.20;;;4.10;99.90;;;;;;4929312;29;20698;-68
2023/01/27 10:57:04;;;;;;;0.45;0.45;;;4.10;99.90;;;;;;4932620;29;20225;-68
2023/01/27 10:59:40;;;;;;;4.38;1.90;;;4.10;99.90;;;;;;4931911;29;20228;-67
2023/01/27 11:02:17;;;;;;;0.93;0.93;;;4.10;99.90;;;;;;4932907;29;20219;-68
2023/01/27 11:04:46;;;;;;;1.85;1.50;;;4.10;99.90;;;;;;4932120;29;20237;-67
2023/01/27 11:07:18;;;;;;;0.90;0.90;;;4.10;99.90;;;;;;4932214;29;20218;-67
2023/01/27 11:09:52;;;;;;;0.70;0.70;;;4.10;99.90;;;;;;4932965;29;20224;-67
2023/01/27 11:12:30;;;;;;;0.90;0.90;;;4.10;99.90;;;;;;4926340;29;20202;-68
2023/01/27 11:15:01;;;;;;;0.30;0.30;;;4.20;99.90;;;;;;4925518;29;20670;-67
2023/01/27 11:17:31;;;;;;;1.75;1.65;;;4.20;99.90;;;;;;4954705;23;20245;-68
2023/01/27 11:20:06;;;;;;;2.05;1.80;;;4.20;99.90;;;;;;4932481;28;20214;-66
2023/01/27 11:22:37;;;;;;;0.60;0.60;;;4.20;99.90;;;;;;4931031;29;20206;-66
2023/01/27 11:25:13;;;;;;;0.93;0.88;;;4.20;99.90;;;;;;4930566;29;20219;-67
2023/01/27 11:27:58;;;;;;;6.55;0.93;;;4.20;99.90;;;;;;4910360;29;21172;-67
2023/01/27 11:30:33;;;;;;;0.40;0.40;;;4.20;99.90;;;;;;4909595;29;20555;-67
2023/01/27 11:33:05;;;;;;;0.20;0.20;;;4.20;99.90;;;;;;4900814;29;20528;-67
2023/01/27 11:35:32;;;;;;;0.50;0.50;;;4.30;99.90;;;;;;4901580;29;20211;-67
2023/01/27 11:37:58;;;;;;;0.70;0.70;;;4.40;99.90;;;;;;4901346;29;20211;-66
2023/01/27 11:40:30;;;;;;;0.80;0.80;;;4.40;99.90;;;;;;4903493;29;20711;-70
2023/01/27 11:42:58;;;;;;;0.75;0.75;;;4.50;99.90;;;;;;4900753;29;20241;-68
2023/01/27 11:45:27;;;;;;;3.65;0.77;;;4.60;99.90;;;;;;4904209;29;20200;-70
2023/01/27 11:47:58;;;;;;;0.60;0.60;;;4.60;99.90;;;;;;4902862;29;20208;-68
2023/01/27 11:50:30;;;;;;;0.43;0.43;;;4.60;99.90;;;;;;4901806;29;20222;-67
2023/01/27 11:53:04;;;;;;;0.75;0.75;;;4.60;99.90;;;;;;4906933;29;20294;-67
2023/01/27 11:55:41;;;;;;;0.47;0.47;;;4.60;99.90;;;;;;4908059;29;20311;-70
2023/01/27 11:58:15;;;;;;;0.40;0.40;;;4.50;99.90;;;;;;4903623;29;20203;-68
2023/01/27 12:00:47;;;;;;;1.00;1.00;;;4.50;99.90;;;;;;4904562;29;20218;-67
2023/01/27 12:03:19;;;;;;;0.70;0.70;;;4.50;99.90;;;;;;4902452;29;20203;-68
2023/01/27 12:05:53;;;;;;;0.85;0.85;;;4.50;99.90;;;;;;4901684;29;20242;-68
2023/01/27 12:08:38;;;;;;;0.50;0.50;;;4.50;99.90;;;;;;4901684;29;20767;-71
2023/01/27 12:11:21;;;;;;;0.80;0.80;;;4.50;99.90;;;;;;4904411;29;20220;-67
2023/01/27 12:13:50;;;;;;;0.20;0.20;;;4.50;99.90;;;;;;4901797;29;20208;-66
2023/01/27 12:16:18;;;;;;;0.70;0.70;;;4.50;99.90;;;;;;4902302;29;20575;-66
2023/01/27 12:18:55;;;;;;;0.20;0.20;;;4.50;99.90;;;;;;4900116;29;22071;-66
2023/01/27 12:21:33;;;;;;;0.93;0.68;;;4.40;99.90;;;;;;4902487;29;20302;-66
2023/01/27 12:24:00;;;;;;;0.25;0.25;;;4.40;99.90;;;;;;4904263;29;20587;-67
2023/01/27 12:26:35;;;;;;;0.30;0.30;;;4.40;99.90;;;;;;4907624;29;20245;-66
2023/01/27 12:29:05;;;;;;;0.70;0.70;;;4.50;99.90;;;;;;4904414;29;20259;-65
2023/01/27 12:31:45;;;;;;;1.75;1.40;;;4.40;99.90;;;;;;4906538;29;20227;-66
2023/01/27 12:34:27;;;;;;;0.63;0.60;;;4.40;99.90;;;;;;4904808;29;20217;-67
2023/01/27 12:36:55;;;;;;;1.10;0.63;;;4.40;99.90;;;;;;4905462;29;20246;-67
2023/01/27 12:39:31;;;;;;;1.33;1.10;;;4.40;99.90;;;;;;4905041;29;20210;-66
2023/01/27 12:41:58;;;;;;;1.73;1.35;;;4.40;99.90;;;;;;4905431;29;20554;-67
2023/01/27 12:44:26;;;;;;;0.73;0.73;;;4.40;99.90;;;;;;4905296;29;20235;-67
2023/01/27 12:47:00;;;;;;;1.13;1.13;;;4.50;99.90;;;;;;4904898;29;20286;-67
2023/01/27 12:49:33;;;;;;;0.95;0.95;;;4.50;99.90;;;;;;4904695;29;20211;-66
2023/01/27 12:52:03;;;;;;;0.52;0.52;;;4.40;99.90;;;;;;4905656;29;20211;-66
2023/01/27 12:54:32;;;;;;;0.90;0.90;;;4.40;99.90;;;;;;4904566;29;20901;-66
2023/01/27 12:57:03;;;;;;;1.02;0.93;;;4.40;99.90;;;;;;4905805;29;20661;-67
2023/01/27 12:59:31;;;;;;;8.18;1.23;;;4.30;99.90;;;;;;4903803;29;20282;-66
2023/01/27 13:02:02;;;;;;;0.93;0.93;;;4.30;99.90;;;;;;4911016;29;20206;-66
2023/01/27 13:04:30;;;;;;;0.20;0.20;;;4.30;99.90;;;;;;4918288;29;20991;-66
2023/01/27 13:07:04;;;;;;;4.60;0.90;;;4.40;99.90;;;;;;4920362;29;20238;-66
2023/01/27 13:09:34;;;;;;;0.70;0.70;;;4.30;99.90;;;;;;4921137;29;20767;-66
2023/01/27 13:12:04;;;;;;;0.57;0.57;;;4.30;99.90;;;;;;4913388;29;20208;-67
2023/01/27 13:14:39;;;;;;;0.52;0.52;;;4.30;99.90;;;;;;4913050;29;20671;-66
2023/01/27 13:17:28;;;;;;;0.22;0.22;;;4.40;99.90;;;;;;4916993;29;20231;-66
2023/01/27 13:20:00;;;;;;;0.20;0.20;;;4.40;99.90;;;;;;4900092;29;20217;-66
2023/01/27 13:22:27;;;;;;;0.52;0.40;;;4.40;99.90;;;;;;4916160;29;20215;-67
2023/01/27 13:25:00;;;;;;;0.25;0.25;;;4.40;99.90;;;;;;4914376;29;20253;-66
2023/01/27 13:27:38;;;;;;;0.50;0.50;;;4.50;99.90;;;;;;4915224;29;20234;-66
2023/01/27 13:30:13;;;;;;;0.30;0.30;;;4.50;99.90;;;;;;4915472;29;20207;-66
2023/01/27 13:32:46;;;;;;;2.33;0.43;;;4.50;99.90;;;;;;4915797;29;20596;-65
2023/01/27 13:35:21;;;;;;;0.65;0.65;;;4.50;99.90;;;;;;4914948;29;20275;-67
2023/01/27 13:37:56;;;;;;;0.20;0.20;;;4.50;99.90;;;;;;4916193;29;20209;-66
2023/01/27 13:40:28;;;;;;;0.30;0.20;;;4.40;99.90;;;;;;4914631;29;20222;-67
2023/01/27 13:43:01;;;;;;;3.88;1.75;;;4.40;99.90;;;;;;4918998;29;20238;-66
2023/01/27 13:45:39;;;;;;;0.20;0.20;;;4.30;99.90;;;;;;4915608;29;20309;-66
2023/01/27 13:48:12;;;;;;;0.60;0.60;;;4.40;99.90;;;;;;4915611;29;20214;-67
2023/01/27 13:50:43;;;;;;;0.38;0.38;;;4.40;99.90;;;;;;4914644;29;20214;-66
2023/01/27 13:53:13;;;;;;;0.20;0.20;;;4.40;99.90;;;;;;4915775;29;20207;-67
2023/01/27 13:55:59;;;;;;;0.30;0.30;;;4.40;99.90;;;;;;4913678;29;20235;-67
2023/01/27 13:58:39;;;;;;;0.15;0.15;;;4.40;99.90;;;;;;4915610;29;20241;-66
2023/01/27 14:01:15;;;;;;;0.57;0.57;;;4.30;99.90;;;;;;4918816;29;20560;-66
2023/01/27 14:03:59;;;;;;;0.50;0.50;;;4.20;99.90;;;;;;4914238;29;20210;-66
2023/01/27 14:06:41;;;;;;;0.68;0.40;;;4.20;99.90;;;;;;4913549;29;20251;-66
2023/01/27 14:09:22;;;;;;;0.20;0.20;;;4.20;99.90;;;;;;4913736;29;20230;-67
2023/01/27 14:11:55;;;;;;;0.80;0.80;;;4.20;99.90;;;;;;4913391;29;20213;-67
2023/01/27 14:14:39;;;;;;;0.20;0.20;;;4.20;99.90;;;;;;4905062;29;20199;-67
2023/01/27 14:17:25;;;;;;;0.20;0.20;;;4.20;99.90;;;;;;4908285;29;20246;-68
2023/01/27 14:20:06;;;;;;;0.20;0.20;;;4.20;99.90;;;;;;4911721;29;20670;-67
2023/01/27 14:22:45;;;;;;;0.50;0.50;;;4.20;99.90;;;;;;4914566;29;20214;-66
2023/01/27 14:25:21;;;;;;;1.05;1.05;;;4.30;99.90;;;;;;4912483;29;20663;-66
2023/01/27 14:27:52;;;;;;;0.35;0.30;;;4.30;99.90;;;;;;4911947;29;20206;-67
2023/01/27 14:30:25;;;;;;;0.50;0.50;;;4.20;99.90;;;;;;4913721;29;20605;-67
2023/01/27 14:33:01;;;;;;;0.20;0.20;;;4.20;99.90;;;;;;4914791;29;20246;-68
2023/01/27 14:35:38;;;;;;;0.25;0.25;;;4.20;99.90;;;;;;4912956;29;20282;-68
2023/01/27 14:38:13;;;;;;;0.77;0.47;;;4.20;99.90;;;;;;4915060;29;20233;-67
2023/01/27 14:40:49;;;;;;;0.82;0.38;;;4.20;99.90;;;;;;4910550;29;20215;-67
2023/01/27 14:43:26;;;;;;;0.20;0.20;;;4.20;99.90;;;;;;4910218;29;20318;-67
2023/01/27 14:45:59;;;;;;;0.20;0.20;;;4.20;99.90;;;;;;4910239;29;20588;-67
2023/01/27 14:48:40;;;;;;;0.40;0.40;;;4.20;99.90;;;;;;4911192;29;20211;-68
2023/01/27 14:51:16;;;;;;;0.30;0.30;;;4.20;99.90;;;;;;4916763;29;20222;-68
2023/01/27 14:53:58;;;;;;;0.57;0.57;;;4.20;99.90;;;;;;4916655;29;20215;-67
2023/01/27 14:56:38;;;;;;;1.75;0.95;;;4.20;99.90;;;;;;4920762;29;20707;-67
2023/01/27 14:59:14;;;;;;;0.30;0.30;;;4.20;99.90;;;;;;4905975;29;20210;-67
2023/01/27 15:01:49;;;;;;;0.88;0.60;;;4.20;99.90;;;;;;4912487;29;20667;-67
2023/01/27 15:04:35;;;;;;;0.25;0.25;;;4.10;99.90;;;;;;4918133;29;20210;-67
2023/01/27 15:07:10;;;;;;;0.10;0.10;;;4.10;99.90;;;;;;4920955;29;20397;-67
2023/01/27 15:10:01;;;;;;;0.40;0.40;;;4.10;99.90;;;;;;4912046;29;20206;-67
2023/01/27 15:12:54;;;;;;;0.20;0.20;;;4.00;99.90;;;;;;4916304;29;20583;-68
2023/01/27 15:15:42;;;;;;;0.20;0.20;;;4.00;99.90;;;;;;4913827;29;20536;-68
2023/01/27 15:18:28;;;;;;;0.30;0.30;;;3.90;99.90;;;;;;4913736;29;20586;-68
2023/01/27 15:21:10;;;;;;;0.20;0.20;;;3.70;99.90;;;;;;4912592;29;20210;-67
2023/01/27 15:23:53;;;;;;;0.30;0.30;;;3.60;99.90;;;;;;4914797;29;20214;-67
2023/01/27 15:26:24;;;;;;;1.30;1.30;;;3.50;99.90;;;;;;4911252;29;20587;-67
2023/01/27 15:28:52;;;;;;;0.10;0.10;;;3.40;99.90;;;;;;4915018;29;20207;-68
2023/01/27 15:31:24;;;;;;;0.50;0.50;;;3.40;99.90;;;;;;4914363;29;20662;-67
2023/01/27 15:33:54;;;;;;;0.60;0.60;;;3.40;99.90;;;;;;4918469;29;20205;-68
2023/01/27 15:36:36;;;;;;;0.95;0.95;;;3.40;99.90;;;;;;4911042;29;20241;-67
2023/01/27 15:39:18;;;;;;;0.38;0.38;;;3.40;99.90;;;;;;4911268;29;20241;-69
2023/01/27 15:41:54;;;;;;;0.20;0.20;;;3.30;99.90;;;;;;4902436;29;20218;-68
2023/01/27 15:44:29;;;;;;;0.50;0.50;;;3.40;99.90;;;;;;4904890;29;20218;-69
2023/01/27 15:47:03;;;;;;;1.50;0.65;;;3.30;99.90;;;;;;4904697;29;20282;-69
2023/01/27 15:49:37;;;;;;;2.50;1.77;;;3.30;99.90;;;;;;4916822;29;20218;-68
2023/01/27 15:52:12;;;;;;;0.65;0.65;;;3.30;99.90;;;;;;4914548;29;20215;-68
2023/01/27 15:54:41;;;;;;;1.00;1.00;;;3.30;99.90;;;;;;4905061;29;20206;-68
2023/01/27 15:57:24;;;;;;;0.52;0.22;;;3.30;99.90;;;;;;4915362;29;20711;-68
2023/01/27 15:59:52;;;;;;;0.20;0.20;;;3.30;99.90;;;;;;4916383;29;20514;-68
2023/01/27 16:02:24;;;;;;;0.20;0.20;;;3.40;99.90;;;;;;4914363;29;21174;-68
2023/01/27 16:04:54;;;;;;;0.20;0.20;;;3.40;99.90;;;;;;4918125;29;20723;-68
2023/01/27 16:07:27;;;;;;;1.10;0.68;;;3.40;99.90;;;;;;4916235;29;20587;-68
2023/01/27 16:09:56;;;;;;;0.20;0.20;;;3.40;99.90;;;;;;4916202;29;20523;-67
2023/01/27 16:12:37;;;;;;;0.60;0.60;;;3.40;99.90;;;;;;4916598;29;20519;-68
2023/01/27 16:15:32;;;;;;;0.95;0.50;;;3.40;99.90;;;;;;4917243;29;20203;-67
2023/01/27 16:18:19;;;;;;;0.98;0.98;;;3.40;99.90;;;;;;4909359;29;20274;-70
2023/01/27 16:20:51;;;;;;;0.80;0.63;;;3.40;99.90;;;;;;4908041;29;20321;-68
2023/01/27 16:23:29;;;;;;;0.40;0.40;;;3.30;99.90;;;;;;4908363;29;20211;-68
2023/01/27 16:26:13;;;;;;;0.70;0.70;;;3.30;99.90;;;;;;4917789;29;20230;-68
2023/01/27 16:28:45;;;;;;;0.50;0.50;;;3.30;99.90;;;;;;4916488;29;20219;-67
2023/01/27 16:31:17;;;;;;;1.25;1.25;;;3.30;99.90;;;;;;4907905;29;20825;-68
2023/01/27 16:33:46;;;;;;;1.45;0.63;;;3.30;99.90;;;;;;4914838;29;20289;-68
2023/01/27 16:36:23;;;;;;;0.60;0.57;;;3.30;99.90;;;;;;4917068;29;20729;-68
2023/01/27 16:38:50;;;;;;;0.47;0.47;;;3.30;99.90;;;;;;4915171;29;20566;-67
2023/01/27 16:41:21;;;;;;;0.45;0.45;;;3.30;99.90;;;;;;4914910;29;20239;-68
2023/01/27 16:43:52;;;;;;;0.60;0.60;;;3.30;99.90;;;;;;4913058;29;20207;-68
2023/01/27 16:46:32;;;;;;;0.45;0.40;;;3.30;99.90;;;;;;4919063;29;20264;-68
2023/01/27 16:49:03;;;;;;;0.40;0.40;;;3.30;99.90;;;;;;4908202;29;20211;-69
2023/01/27 16:51:30;;;;;;;0.60;0.60;;;3.30;99.90;;;;;;4922182;29;20270;-67
2023/01/27 16:53:59;;;;;;;0.40;0.40;;;3.30;99.90;;;;;;4916883;29;20647;-68
2023/01/27 16:56:30;;;;;;;0.20;0.20;;;3.30;99.90;;;;;;4909538;29;20231;-68
2023/01/27 16:59:01;;;;;;;0.45;0.45;;;3.20;99.90;;;;;;4916257;29;20202;-66
2023/01/27 17:01:33;;;;;;;0.85;0.85;;;3.20;99.90;;;;;;4915285;29;20217;-68
2023/01/27 17:04:02;;;;;;;0.25;0.25;;;3.20;99.90;;;;;;4914206;29;20695;-69
2023/01/27 17:06:30;;;;;;;0.80;0.80;;;3.20;99.90;;;;;;4908598;29;20244;-68
2023/01/27 17:08:56;;;;;;;0.40;0.40;;;3.20;99.90;;;;;;4915175;29;20290;-68
2023/01/27 17:11:25;;;;;;;0.60;0.60;;;3.20;99.90;;;;;;4906494;29;20214;-68
2023/01/27 17:14:00;;;;;;;0.40;0.40;;;3.20;99.90;;;;;;4906737;29;20215;-69
2023/01/27 17:16:31;;;;;;;6.65;0.85;;;3.20;99.90;;;;;;4907919;29;20230;-67
2023/01/27 17:19:04;;;;;;;0.82;0.82;;;3.10;99.90;;;;;;4913955;29;20221;-67
2023/01/27 17:21:36;;;;;;;0.57;0.57;;;3.20;99.90;;;;;;4908289;29;20210;-67
2023/01/27 17:24:17;;;;;;;0.77;0.77;;;3.20;99.90;;;;;;4908553;29;20755;-68
2023/01/27 17:26:47;;;;;;;0.60;0.60;;;3.20;99.90;;;;;;4906420;29;20257;-68
2023/01/27 17:29:18;;;;;;;1.23;1.13;;;3.10;99.90;;;;;;4909507;29;20603;-68
2023/01/27 17:31:45;;;;;;;0.90;0.90;;;3.10;99.90;;;;;;4906637;29;20549;-67
2023/01/27 17:34:17;;;;;;;0.20;0.20;;;3.10;99.90;;;;;;4907926;29;20215;-68
2023/01/27 17:37:14;;;;;;;1.15;0.75;;;3.10;99.90;;;;;;4906065;29;20250;-67
2023/01/27 17:39:42;;;;;;;0.55;0.55;;;3.10;99.90;;;;;;4912807;29;20214;-68
2023/01/27 17:42:13;;;;;;;0.70;0.70;;;3.10;99.90;;;;;;4910670;29;20646;-68
2023/01/27 17:44:41;;;;;;;0.38;0.38;;;3.10;99.90;;;;;;4909885;29;20303;-69
2023/01/27 17:47:08;;;;;;;0.63;0.63;;;3.10;99.90;;;;;;4914056;29;20269;-67
2023/01/27 17:49:38;;;;;;;3.58;1.30;;;3.10;99.90;;;;;;4904430;29;20207;-69
2023/01/27 17:52:08;;;;;;;0.93;0.93;;;3.00;99.90;;;;;;4917270;29;20207;-68
2023/01/27 17:54:37;;;;;;;1.63;0.82;;;3.10;99.90;;;;;;4904868;29;20206;-68
2023/01/27 17:57:07;;;;;;;0.43;0.43;;;3.10;99.90;;;;;;4907257;29;20241;-70
2023/01/27 17:59:38;;;;;;;0.65;0.60;;;3.10;99.90;;;;;;4911476;29;20706;-68
2023/01/27 18:02:15;;;;;;;1.20;0.80;;;3.10;99.90;;;;;;4907586;29;20211;-68
2023/01/27 18:04:42;;;;;;;1.05;1.05;;;3.00;99.90;;;;;;4905242;29;20242;-68
2023/01/27 18:07:10;;;;;;;0.43;0.43;;;3.00;99.90;;;;;;4908577;29;20246;-67
2023/01/27 18:09:44;;;;;;;0.77;0.77;;;3.00;99.90;;;;;;4916273;29;20222;-68
2023/01/27 18:12:27;;;;;;;0.63;0.63;;;3.00;99.90;;;;;;4905010;29;20313;-67
2023/01/27 18:14:54;;;;;;;0.38;0.38;;;3.00;99.90;;;;;;4904548;29;20687;-67
2023/01/27 18:17:23;;;;;;;0.47;0.47;;;3.00;99.90;;;;;;4907325;29;20230;-66
2023/01/27 18:19:52;;;;;;;1.35;0.75;;;3.00;99.90;;;;;;4905778;29;20333;-67
2023/01/27 18:22:20;;;;;;;0.65;0.65;;;2.90;99.90;;;;;;4906592;29;20203;-67
2023/01/27 18:24:52;;;;;;;1.95;1.08;;;2.90;99.90;;;;;;4903804;29;20223;-67